Medicine Lake, Montana
Current Conditions -  °F | °C
As of 10:52 AM on Tuesday 21 Oct 2014 (Local Time) from KISN Reporting Station
Clear Clear  
Wind Chill: 58°   Ceiling: Unl
Heat Index: 58°   Visibility: 10mi
Dew Point: 40°   Wind: 6mph
Humidity: 51%   Direction: 150°SSE
Pressure: 29.69"   Gusts: NA
Location:  48.5°N, 104.5°W
Report Text: KISN 211652Z AUTO 15005KT 10SM CLR 14/04 A2969 RMK AO2 SLP055 T01440044
Loading
Personal Weather Stations






























Interactive Weather Map
Tropical Storm Tracking
New forecast layout! Learn more

10-Day Weather Forecast

Advertisements
Track Severe Weather on mobile